Time;durP1;ratioP1;P1;durP2;ratioP2;P2;SDS_P1;SDS_P2;PMS_P1;PMS_P2;Temp;Humidity;BMP_temperature;BMP_pressure;BME280_temperature;BME280_humidity;BME280_pressure;Samples;Min_cycle;Max_cycle;Signal;HPM_P1;HPM_P2
2021/07/02 00:01:07;;;;;;;29.17;16.75;;;;;;;15.09;100.00;100374.41;4980939;28;20034;-79
2021/07/02 00:03:32;;;;;;;31.15;18.10;;;;;;;15.04;100.00;100382.41;4981004;28;20046;-79
2021/07/02 00:05:57;;;;;;;27.33;16.65;;;;;;;15.08;100.00;100388.34;4981528;28;20033;-79
2021/07/02 00:08:26;;;;;;;33.15;17.50;;;;;;;15.05;100.00;100384.09;4999286;28;20026;-79
2021/07/02 00:10:54;;;;;;;29.63;16.80;;;;;;;15.01;100.00;100374.69;4981703;28;20030;-79
2021/07/02 00:13:20;;;;;;;31.65;16.70;;;;;;;15.01;100.00;100373.84;4980014;28;20077;-80
2021/07/02 00:15:46;;;;;;;32.65;16.92;;;;;;;14.96;100.00;100385.34;4997785;28;20482;-80
2021/07/02 00:18:11;;;;;;;30.92;17.00;;;;;;;14.96;100.00;100384.47;4980466;28;20030;-80
2021/07/02 00:20:36;;;;;;;34.08;17.50;;;;;;;14.92;100.00;100378.50;4981252;28;20030;-80
2021/07/02 00:23:02;;;;;;;28.90;16.25;;;;;;;14.95;100.00;100367.09;4980897;28;20394;-79
2021/07/02 00:25:27;;;;;;;34.50;16.70;;;;;;;14.91;100.00;100374.22;4981657;28;20030;-80
2021/07/02 00:27:52;;;;;;;36.60;17.23;;;;;;;14.90;100.00;100369.03;4981773;28;20026;-80
2021/07/02 00:30:18;;;;;;;30.10;17.63;;;;;;;14.91;100.00;100368.97;4998902;28;20080;-79
2021/07/02 00:32:43;;;;;;;35.63;17.95;;;;;;;14.87;100.00;100376.97;4998501;28;20475;-80
2021/07/02 00:35:09;;;;;;;30.00;17.17;;;;;;;14.87;100.00;100375.25;4980386;28;20534;-80
2021/07/02 00:37:35;;;;;;;32.40;17.10;;;;;;;14.93;100.00;100363.69;4979391;28;20033;-80
2021/07/02 00:40:00;;;;;;;37.15;17.23;;;;;;;14.91;100.00;100378.59;4980160;28;20026;-80
2021/07/02 00:42:26;;;;;;;35.95;18.10;;;;;;;14.79;100.00;100384.28;4997212;28;20044;-80
2021/07/02 00:44:51;;;;;;;31.63;17.70;;;;;;;14.79;100.00;100376.44;4980038;28;20069;-80
2021/07/02 00:47:19;;;;;;;27.83;16.65;;;;;;;14.78;100.00;100379.94;4998010;28;20439;-80
2021/07/02 00:49:45;;;;;;;26.30;16.33;;;;;;;14.73;100.00;100383.59;4997858;28;20097;-80
2021/07/02 00:52:12;;;;;;;28.23;16.67;;;;;;;14.69;100.00;100366.34;4997974;28;20032;-80
2021/07/02 00:54:38;;;;;;;31.00;16.70;;;;;;;14.67;100.00;100373.38;4980584;28;20081;-80
2021/07/02 00:57:05;;;;;;;31.80;16.60;;;;;;;14.59;100.00;100364.13;4979883;28;20054;-80
2021/07/02 00:59:32;;;;;;;28.75;15.40;;;;;;;14.50;100.00;100366.19;4998380;28;20065;-80
2021/07/02 01:01:58;;;;;;;29.92;16.77;;;;;;;14.40;100.00;100369.16;4980001;28;20165;-80
2021/07/02 01:04:24;;;;;;;26.75;14.63;;;;;;;14.33;100.00;100373.78;4997373;28;20023;-80
2021/07/02 01:06:51;;;;;;;30.02;15.65;;;;;;;14.26;100.00;100373.16;4979433;28;20053;-80
2021/07/02 01:09:17;;;;;;;32.55;15.32;;;;;;;14.25;100.00;100371.44;4997439;28;20030;-80
2021/07/02 01:11:43;;;;;;;26.63;15.38;;;;;;;14.24;100.00;100372.34;4978680;28;20030;-80
2021/07/02 01:14:08;;;;;;;35.15;16.58;;;;;;;14.24;100.00;100374.09;4979335;28;20141;-80
2021/07/02 01:16:33;;;;;;;28.55;15.25;;;;;;;14.21;100.00;100369.84;4979290;28;20116;-80
2021/07/02 01:18:59;;;;;;;27.60;15.05;;;;;;;14.20;100.00;100386.41;4997360;28;20073;-80
2021/07/02 01:21:24;;;;;;;29.70;15.93;;;;;;;14.20;100.00;100380.34;4979847;28;20029;-80
2021/07/02 01:23:49;;;;;;;28.98;16.02;;;;;;;14.18;100.00;100385.59;4979711;28;20045;-80
2021/07/02 01:26:17;;;;;;;27.83;15.88;;;;;;;14.19;100.00;100381.22;4996806;28;20033;-80
2021/07/02 01:28:43;;;;;;;35.15;16.48;;;;;;;14.13;100.00;100387.53;4979553;28;20087;-80
2021/07/02 01:31:08;;;;;;;29.25;16.30;;;;;;;14.14;100.00;100393.59;4979093;28;20264;-80
2021/07/02 01:33:34;;;;;;;35.10;17.05;;;;;;;14.13;100.00;100391.88;4979049;28;20026;-80
2021/07/02 01:36:05;;;;;;;32.70;17.10;;;;;;;14.14;100.00;100394.44;4997059;28;20034;-80
2021/07/02 01:38:31;;;;;;;32.90;17.10;;;;;;;14.16;100.00;100400.47;4980949;28;20022;-80
2021/07/02 01:40:56;;;;;;;35.38;17.95;;;;;;;14.18;100.00;100403.00;4979805;28;20459;-80
2021/07/02 01:43:22;;;;;;;29.50;18.20;;;;;;;14.15;100.00;100396.16;4997747;28;20023;-80
2021/07/02 01:45:48;;;;;;;30.58;16.40;;;;;;;14.11;100.00;100402.38;4997862;28;20030;-80
2021/07/02 01:48:13;;;;;;;32.53;17.58;;;;;;;14.14;100.00;100407.50;4980909;28;20098;-80
2021/07/02 01:50:38;;;;;;;31.35;17.73;;;;;;;14.07;100.00;100402.53;4980271;28;20440;-80
2021/07/02 01:53:04;;;;;;;40.00;18.05;;;;;;;14.08;100.00;100404.25;4980446;28;20065;-80
2021/07/02 01:55:29;;;;;;;29.70;18.35;;;;;;;14.07;100.00;100405.13;4979421;28;20041;-80
2021/07/02 01:57:54;;;;;;;30.60;17.83;;;;;;;14.03;100.00;100401.78;4997286;28;20061;-80
2021/07/02 02:00:20;;;;;;;29.20;16.95;;;;;;;14.04;100.00;100406.13;4998140;28;20081;-80
2021/07/02 02:02:45;;;;;;;30.92;18.27;;;;;;;14.00;100.00;100400.13;4997702;28;20030;-80
2021/07/02 02:05:11;;;;;;;30.23;18.38;;;;;;;13.98;100.00;100401.97;4979739;28;20030;-80
2021/07/02 02:07:36;;;;;;;35.00;18.23;;;;;;;13.91;100.00;100399.63;4998669;28;20421;-79
2021/07/02 02:10:02;;;;;;;34.42;18.50;;;;;;;13.86;100.00;100405.00;4980989;28;20466;-80
2021/07/02 02:12:27;;;;;;;32.10;18.70;;;;;;;13.82;100.00;100396.44;4980242;28;20026;-80
2021/07/02 02:14:52;;;;;;;29.35;18.52;;;;;;;13.83;100.00;100405.09;4997786;28;20038;-80
2021/07/02 02:17:20;;;;;;;32.95;18.27;;;;;;;13.82;100.00;100408.59;4997075;28;20176;-80
2021/07/02 02:19:46;;;;;;;38.03;18.95;;;;;;;13.80;100.00;100408.66;4996878;28;20379;-80
2021/07/02 02:22:11;;;;;;;42.72;19.08;;;;;;;13.85;100.00;100405.88;4979754;28;20034;-80
2021/07/02 02:24:36;;;;;;;32.03;18.13;;;;;;;13.87;100.00;100403.25;4997331;28;20033;-80
2021/07/02 02:27:02;;;;;;;29.75;18.65;;;;;;;13.91;100.00;100397.84;4996173;28;20033;-80
2021/07/02 02:29:28;;;;;;;36.28;19.55;;;;;;;13.93;100.00;100409.09;4996811;28;20030;-80
2021/07/02 02:31:53;;;;;;;40.65;19.85;;;;;;;13.94;100.00;100407.31;4995657;28;20030;-80
2021/07/02 02:34:18;;;;;;;37.92;20.38;;;;;;;13.96;100.00;100406.38;4996626;28;20026;-80
2021/07/02 02:36:43;;;;;;;35.60;20.60;;;;;;;13.97;100.00;100402.84;5003735;23;20034;-84
2021/07/02 02:39:09;;;;;;;37.50;20.08;;;;;;;13.97;100.00;100409.84;5000519;28;20538;-84
2021/07/02 02:41:34;;;;;;;35.08;20.23;;;;;;;13.91;100.00;100402.22;4981769;28;20033;-83
2021/07/02 02:44:01;;;;;;;36.15;20.15;;;;;;;13.90;100.00;100403.97;4997700;28;20041;-83
2021/07/02 02:46:26;;;;;;;35.63;20.60;;;;;;;13.90;100.00;100413.56;4979502;28;20026;-84
2021/07/02 02:48:52;;;;;;;40.28;21.30;;;;;;;13.85;100.00;100411.09;4980950;28;20030;-84
2021/07/02 02:51:17;;;;;;;40.53;20.52;;;;;;;13.84;100.00;100414.63;4997013;28;20030;-84
2021/07/02 02:53:42;;;;;;;40.15;21.08;;;;;;;13.81;100.00;100417.31;4978920;28;20034;-84
2021/07/02 02:56:08;;;;;;;37.65;19.85;;;;;;;13.80;100.00;100415.63;4978548;28;20069;-84
2021/07/02 02:58:33;;;;;;;34.78;20.75;;;;;;;13.78;100.00;100412.22;4977801;28;20398;-84
2021/07/02 03:00:58;;;;;;;39.90;22.17;;;;;;;13.70;100.00;100420.31;4978600;28;20109;-83
2021/07/02 03:03:24;;;;;;;37.90;21.85;;;;;;;13.64;100.00;100417.03;4995022;28;20084;-83
2021/07/02 03:05:49;;;;;;;35.88;19.25;;;;;;;13.54;100.00;100419.94;4994749;28;20460;-84
2021/07/02 03:08:15;;;;;;;35.25;19.05;;;;;;;13.53;100.00;100426.06;4977313;28;20030;-83
2021/07/02 03:10:40;;;;;;;36.22;19.83;;;;;;;13.46;100.00;100418.50;4977004;28;20125;-83
2021/07/02 03:13:05;;;;;;;36.20;21.10;;;;;;;13.44;100.00;100420.31;4977286;28;20029;-83
2021/07/02 03:15:31;;;;;;;40.88;20.17;;;;;;;13.41;100.00;100417.78;4977126;28;20457;-83
2021/07/02 03:17:56;;;;;;;36.97;20.00;;;;;;;13.41;100.00;100423.84;4977565;28;20022;-83
2021/07/02 03:20:21;;;;;;;40.33;20.38;;;;;;;13.40;100.00;100422.16;4977373;28;20046;-84
2021/07/02 03:22:47;;;;;;;39.05;20.95;;;;;;;13.40;100.00;100424.75;4977069;28;20023;-83
2021/07/02 03:25:13;;;;;;;38.25;21.42;;;;;;;13.45;100.00;100428.06;4977105;28;20026;-84
2021/07/02 03:27:39;;;;;;;41.75;21.00;;;;;;;13.54;100.00;100435.56;4977986;28;20018;-83
2021/07/02 03:30:09;;;;;;;38.35;21.20;;;;;;;13.60;100.00;100437.13;4977524;28;20026;-84
2021/07/02 03:32:34;;;;;;;36.53;20.98;;;;;;;13.66;100.00;100436.94;4994435;28;20033;-83
2021/07/02 03:34:59;;;;;;;44.90;22.77;;;;;;;13.68;100.00;100439.50;4978580;28;20042;-83
2021/07/02 03:37:25;;;;;;;46.22;22.50;;;;;;;13.73;100.00;100442.78;4981799;28;20181;-84
2021/07/02 03:39:50;;;;;;;41.35;21.85;;;;;;;13.75;100.00;100438.38;4982193;28;20034;-83
2021/07/02 03:42:15;;;;;;;39.60;22.05;;;;;;;13.79;100.00;100439.97;4982500;28;20023;-83
2021/07/02 03:44:41;;;;;;;34.78;20.73;;;;;;;13.76;100.00;100440.09;4999331;28;20157;-83
2021/07/02 03:47:06;;;;;;;36.00;21.05;;;;;;;13.74;100.00;100439.31;4981400;28;20022;-83
2021/07/02 03:49:31;;;;;;;37.55;20.17;;;;;;;13.79;100.00;100446.06;4999284;28;20030;-84
2021/07/02 03:51:57;;;;;;;35.28;20.50;;;;;;;13.80;100.00;100441.72;4981671;28;20111;-83
2021/07/02 03:54:22;;;;;;;38.50;21.45;;;;;;;13.79;100.00;100439.97;4981670;28;20022;-84
2021/07/02 03:59:31;;;;;;;41.53;21.48;;;;;;;13.76;100.00;100440.09;5000821;28;20554;-83
2021/07/02 04:01:57;;;;;;;32.55;20.23;;;;;;;13.78;100.00;100448.72;4981630;28;20069;-83
2021/07/02 04:04:22;;;;;;;35.00;19.98;;;;;;;13.85;100.00;100445.00;4982223;28;20114;-83
2021/07/02 04:06:48;;;;;;;36.63;20.60;;;;;;;13.90;100.00;100448.31;4981682;28;20398;-83
2021/07/02 04:09:14;;;;;;;32.65;20.73;;;;;;;13.93;100.00;100456.03;4999335;28;20029;-84
2021/07/02 04:11:39;;;;;;;32.78;20.27;;;;;;;13.91;100.00;100455.22;4982737;28;20058;-83
2021/07/02 04:14:05;;;;;;;37.72;19.83;;;;;;;13.92;100.00;100461.31;4982157;28;20414;-83
2021/07/02 04:16:30;;;;;;;35.63;19.30;;;;;;;13.92;100.00;100471.72;4999566;28;20120;-83
2021/07/02 04:18:56;;;;;;;35.95;19.77;;;;;;;13.98;100.00;100472.38;4999165;28;20037;-83
2021/07/02 04:21:21;;;;;;;34.17;19.50;;;;;;;13.97;100.00;100473.25;4982183;28;20068;-83
2021/07/02 04:23:46;;;;;;;35.65;19.02;;;;;;;14.02;100.00;100471.34;4981920;28;20033;-84
2021/07/02 04:26:11;;;;;;;30.38;18.77;;;;;;;13.98;100.00;100477.59;4999981;28;20022;-83
2021/07/02 04:28:37;;;;;;;31.27;18.55;;;;;;;14.05;100.00;100473.00;5000406;28;20371;-83
2021/07/02 04:31:02;;;;;;;28.45;18.70;;;;;;;14.04;100.00;100476.53;5000600;28;20101;-83
2021/07/02 04:33:27;;;;;;;28.75;17.98;;;;;;;14.13;100.00;100486.66;4999054;28;20037;-83
2021/07/02 04:35:52;;;;;;;33.78;18.38;;;;;;;14.15;100.00;100486.59;4981896;28;20494;-84
2021/07/02 04:38:18;;;;;;;27.15;18.08;;;;;;;14.21;100.00;100484.63;5000250;28;20057;-83
2021/07/02 04:40:43;;;;;;;29.80;18.60;;;;;;;14.31;100.00;100487.75;4983338;28;20030;-83
2021/07/02 04:43:08;;;;;;;32.40;19.40;;;;;;;14.42;100.00;100483.03;4981875;28;20045;-83
2021/07/02 04:45:34;;;;;;;34.78;19.13;;;;;;;14.48;100.00;100488.03;4997267;28;20031;-84
2021/07/02 04:47:59;;;;;;;32.72;18.33;;;;;;;14.57;100.00;100493.88;4979769;28;20062;-83
2021/07/02 04:50:24;;;;;;;33.17;18.73;;;;;;;14.74;100.00;100500.16;4979797;28;20061;-84
2021/07/02 04:52:50;;;;;;;30.40;18.05;;;;;;;14.93;100.00;100499.47;4996810;28;20045;-83
2021/07/02 04:55:15;;;;;;;31.42;18.20;;;;;;;14.93;100.00;100495.13;4979799;28;20092;-83
2021/07/02 04:57:41;;;;;;;29.67;17.63;;;;;;;14.87;100.00;100495.38;4979837;28;20060;-83
2021/07/02 05:00:07;;;;;;;31.50;17.67;;;;;;;14.67;100.00;100493.47;4979383;28;20402;-83
2021/07/02 05:02:32;;;;;;;28.73;18.63;;;;;;;14.77;100.00;100498.34;4979789;28;20026;-83
2021/07/02 05:04:57;;;;;;;28.50;19.35;;;;;;;14.89;100.00;100500.53;4979163;28;20034;-83
2021/07/02 05:07:23;;;;;;;30.80;18.58;;;;;;;14.87;100.00;100500.59;4996295;28;20033;-84
2021/07/02 05:09:49;;;;;;;27.88;18.20;;;;;;;14.80;100.00;100503.47;4996790;28;20026;-83
2021/07/02 05:12:14;;;;;;;29.98;17.92;;;;;;;15.11;100.00;100504.03;4978975;28;20014;-83
2021/07/02 05:14:39;;;;;;;28.35;17.35;;;;;;;15.73;100.00;100504.28;4979058;28;20091;-84
2021/07/02 05:17:05;;;;;;;26.63;17.42;;;;;;;16.13;100.00;100498.25;4978928;28;20037;-84
2021/07/02 05:19:31;;;;;;;25.42;16.55;;;;;;;16.10;100.00;100499.25;4979073;28;20031;-83
2021/07/02 05:21:56;;;;;;;25.85;17.05;;;;;;;15.53;100.00;100507.66;4978847;28;20037;-84
2021/07/02 05:24:21;;;;;;;29.33;17.65;;;;;;;15.34;100.00;100511.00;4978364;28;20419;-84
2021/07/02 05:26:47;;;;;;;30.63;17.90;;;;;;;15.00;100.00;100510.59;4978539;28;20077;-84
2021/07/02 05:29:12;;;;;;;27.23;17.55;;;;;;;15.01;100.00;100513.13;4978907;28;20050;-83
2021/07/02 05:31:37;;;;;;;35.90;17.25;;;;;;;14.86;100.00;100513.69;4996185;28;20053;-83
2021/07/02 05:34:02;;;;;;;29.67;16.92;;;;;;;14.94;100.00;100512.50;4996125;28;20023;-84
2021/07/02 05:36:28;;;;;;;29.73;18.40;;;;;;;14.93;100.00;100510.81;4995561;28;20461;-83
2021/07/02 05:38:53;;;;;;;29.25;18.05;;;;;;;14.87;100.00;100512.78;4979137;28;20026;-82
2021/07/02 05:41:18;;;;;;;27.40;18.05;;;;;;;14.72;100.00;100506.38;4978776;28;20593;-83
2021/07/02 05:43:43;;;;;;;27.83;17.70;;;;;;;14.82;100.00;100506.88;4996279;28;20042;-83
2021/07/02 05:46:09;;;;;;;29.58;17.10;;;;;;;14.93;100.00;100516.03;4977928;28;20533;-84
2021/07/02 05:48:34;;;;;;;25.90;16.75;;;;;;;14.85;100.00;100517.22;4977946;28;20109;-84
2021/07/02 05:51:00;;;;;;;24.00;16.33;;;;;;;15.01;100.00;100517.50;4977657;28;20022;-84
2021/07/02 05:53:25;;;;;;;25.75;17.08;;;;;;;15.08;100.00;100511.97;4977658;28;20475;-84
2021/07/02 05:55:50;;;;;;;26.17;16.73;;;;;;;15.14;100.00;100510.91;4977576;28;20061;-84
2021/07/02 05:58:16;;;;;;;25.50;16.42;;;;;;;15.08;100.00;100509.34;4995203;28;20108;-84
2021/07/02 06:00:41;;;;;;;29.48;17.02;;;;;;;14.95;100.00;100514.19;4979566;28;20026;-84
2021/07/02 06:03:07;;;;;;;25.38;16.33;;;;;;;14.86;100.00;100521.53;4979187;28;20022;-84
2021/07/02 06:05:34;;;;;;;26.23;16.80;;;;;;;14.76;100.00;100523.63;4978638;28;20018;-85
2021/07/02 06:07:59;;;;;;;27.02;16.60;;;;;;;14.76;100.00;100523.63;4978738;28;20121;-83
2021/07/02 06:10:26;;;;;;;27.77;16.80;;;;;;;14.80;100.00;100530.44;4978646;28;20053;-84
2021/07/02 06:12:52;;;;;;;27.60;16.85;;;;;;;14.78;100.00;100526.16;4980167;28;20442;-84
2021/07/02 06:15:19;;;;;;;24.45;16.38;;;;;;;14.92;100.00;100534.34;4979077;28;20112;-84
2021/07/02 06:17:47;;;;;;;26.23;17.20;;;;;;;14.90;100.00;100530.94;4978407;28;20049;-84
2021/07/02 06:20:13;;;;;;;25.90;16.05;;;;;;;14.87;100.00;100526.69;4995420;28;20022;-85
2021/07/02 06:22:39;;;;;;;25.63;16.67;;;;;;;14.87;100.00;100528.44;4977828;28;20022;-84
2021/07/02 06:25:07;;;;;;;24.95;16.38;;;;;;;14.90;100.00;100531.81;4977475;28;20081;-84
2021/07/02 06:27:33;;;;;;;28.55;17.10;;;;;;;14.98;100.00;100534.13;4977922;28;20427;-84
2021/07/02 06:29:58;;;;;;;23.45;16.20;;;;;;;15.07;100.00;100532.94;4978254;28;20124;-84
2021/07/02 06:32:23;;;;;;;24.30;15.90;;;;;;;15.12;100.00;100533.63;4995131;28;20022;-84
2021/07/02 06:34:49;;;;;;;26.52;16.08;;;;;;;15.09;100.00;100525.91;4995240;28;20029;-84
2021/07/02 06:37:14;;;;;;;27.55;16.50;;;;;;;15.25;100.00;100529.63;4995609;28;20084;-84
2021/07/02 06:39:39;;;;;;;27.77;15.85;;;;;;;15.34;100.00;100531.91;4995168;28;20029;-84
2021/07/02 06:42:05;;;;;;;26.10;17.17;;;;;;;15.37;100.00;100530.94;4977982;28;20546;-84
2021/07/02 06:44:30;;;;;;;32.08;17.60;;;;;;;15.36;100.00;100534.44;4996124;28;20040;-86
2021/07/02 06:46:56;;;;;;;27.35;17.27;;;;;;;15.56;100.00;100529.31;4995067;28;20026;-85
2021/07/02 06:49:21;;;;;;;22.15;16.38;;;;;;;16.33;100.00;100527.03;4998052;28;20068;-86
2021/07/02 06:51:46;;;;;;;26.50;16.25;;;;;;;17.41;100.00;100520.50;4979470;28;20022;-85
2021/07/02 06:54:12;;;;;;;24.23;16.73;;;;;;;17.06;100.00;100526.50;4977359;28;20022;-87
2021/07/02 06:56:37;;;;;;;22.48;16.15;;;;;;;18.11;100.00;100534.63;4976928;28;20124;-85
2021/07/02 06:59:02;;;;;;;21.60;16.65;;;;;;;18.75;100.00;100530.50;4977212;28;20076;-86
2021/07/02 07:01:27;;;;;;;23.60;15.32;;;;;;;18.53;100.00;100517.59;4977132;28;20550;-86
2021/07/02 07:03:53;;;;;;;22.92;14.82;;;;;;;17.96;100.00;100530.13;4977211;28;20042;-86
2021/07/02 07:06:18;;;;;;;21.83;15.57;;;;;;;17.34;100.00;100533.97;4977468;28;20101;-86
2021/07/02 07:08:44;;;;;;;22.25;14.85;;;;;;;17.07;100.00;100531.69;4977305;28;20402;-86
2021/07/02 07:11:09;;;;;;;24.58;16.10;;;;;;;17.51;100.00;100533.16;4979966;28;20034;-87
2021/07/02 07:13:36;;;;;;;21.38;14.50;;;;;;;17.67;100.00;100536.75;4981919;28;20455;-86
2021/07/02 07:16:02;;;;;;;23.63;15.60;;;;;;;17.94;100.00;100522.31;4980851;28;20038;-86
2021/07/02 07:18:28;;;;;;;23.00;14.68;;;;;;;18.80;100.00;100525.00;4981048;28;20113;-86
2021/07/02 07:20:53;;;;;;;21.67;13.98;;;;;;;19.63;100.00;100533.63;4998463;28;20109;-86
2021/07/02 07:23:18;;;;;;;20.95;13.70;;;;;;;20.51;93.61;100529.44;4999005;28;20030;-86
2021/07/02 07:25:44;;;;;;;22.55;13.57;;;;;;;19.49;100.00;100532.63;5002632;28;20525;-86
2021/07/02 07:28:09;;;;;;;19.90;13.85;;;;;;;20.25;94.64;100531.81;4980905;28;20024;-86
2021/07/02 07:30:35;;;;;;;22.73;13.30;;;;;;;19.21;100.00;100535.06;4998324;28;20033;-85
2021/07/02 07:33:01;;;;;;;16.42;12.73;;;;;;;20.00;96.80;100530.63;4980998;28;20053;-85
2021/07/02 07:35:31;;;;;;;17.77;12.82;;;;;;;19.31;97.79;100536.28;4980948;28;20375;-86
2021/07/02 07:37:57;;;;;;;21.23;12.98;;;;;;;18.42;100.00;100530.44;4980719;28;20030;-85
2021/07/02 07:40:25;;;;;;;19.15;12.77;;;;;;;17.85;100.00;100535.88;4980512;28;20025;-85
2021/07/02 07:42:51;;;;;;;21.80;12.18;;;;;;;17.68;100.00;100530.59;4980642;28;20026;-85
2021/07/02 07:45:16;;;;;;;18.52;13.73;;;;;;;18.20;100.00;100524.59;4980393;28;20394;-85
2021/07/02 07:47:42;;;;;;;18.30;12.07;;;;;;;18.02;100.00;100529.84;4980533;28;20018;-86
2021/07/02 07:50:09;;;;;;;20.02;13.18;;;;;;;18.45;100.00;100535.53;4980312;28;20031;-86
2021/07/02 07:52:42;;;;;;;21.20;12.73;;;;;;;20.42;94.29;100533.47;4980766;28;20402;-86
2021/07/02 07:55:07;;;;;;;19.60;12.50;;;;;;;21.42;87.16;100540.56;4980312;28;20022;-86
2021/07/02 08:14:18;;;;;;;20.60;13.50;;;;;;;20.19;97.74;100534.81;4959706;29;20051;-87
2021/07/02 08:16:43;;;;;;;21.40;12.25;;;;;;;21.71;83.82;100544.81;4944046;29;20047;-87
2021/07/02 08:19:08;;;;;;;18.83;12.15;;;;;;;22.28;79.75;100544.56;4948759;29;20407;-87
2021/07/02 08:21:34;;;;;;;22.45;12.52;;;;;;;21.77;82.18;100533.00;4943866;29;20039;-87
2021/07/02 08:23:59;;;;;;;20.42;12.02;;;;;;;20.33;88.89;100549.81;4944435;29;20019;-87
2021/07/02 08:26:26;;;;;;;19.67;13.18;;;;;;;20.38;87.80;100543.34;4944527;29;20046;-87
2021/07/02 08:31:36;;;;;;;20.58;12.60;;;;;;;20.81;84.71;100543.44;4960308;29;20054;-87
2021/07/02 08:34:02;;;;;;;20.77;12.63;;;;;;;20.58;91.20;100539.53;4941070;29;20023;-88
2021/07/02 08:36:27;;;;;;;19.20;12.90;;;;;;;20.10;92.95;100541.47;4941494;29;20090;-88
2021/07/02 08:38:53;;;;;;;24.52;12.07;;;;;;;19.11;99.04;100555.75;4940914;29;20496;-87
2021/07/02 08:41:18;;;;;;;19.60;12.50;;;;;;;18.74;100.00;100547.19;4958626;29;20055;-87
2021/07/02 08:43:45;;;;;;;22.42;12.57;;;;;;;18.55;100.00;100555.16;4957732;29;20444;-87
2021/07/02 08:46:19;;;;;;;19.13;12.43;;;;;;;18.72;100.00;100556.03;4974865;23;20092;-80
2021/07/02 08:48:47;;;;;;;22.48;12.55;;;;;;;18.46;100.00;100560.88;4979405;28;20033;-81
2021/07/02 08:51:12;;;;;;;20.58;12.18;;;;;;;18.18;100.00;100564.88;4979418;28;20034;-81
2021/07/02 08:53:39;;;;;;;19.20;11.95;;;;;;;18.18;100.00;100558.78;4979396;28;20072;-81
2021/07/02 08:56:05;;;;;;;18.77;12.70;;;;;;;18.11;100.00;100565.28;4978853;28;20117;-81
2021/07/02 08:58:31;;;;;;;19.52;12.60;;;;;;;18.00;100.00;100568.41;4979511;28;20474;-81
2021/07/02 09:00:57;;;;;;;19.48;13.05;;;;;;;18.29;100.00;100561.75;4996842;28;20517;-81
2021/07/02 09:03:27;;;;;;;21.00;11.55;;;;;;;19.09;100.00;100562.88;4979268;28;20077;-81
2021/07/02 09:05:53;;;;;;;18.02;11.45;;;;;;;20.44;94.09;100564.06;4979176;28;20049;-81
2021/07/02 09:08:19;;;;;;;18.27;11.43;;;;;;;19.97;94.41;100572.06;4978899;28;20026;-81
2021/07/02 09:10:46;;;;;;;18.80;10.82;;;;;;;19.17;95.27;100573.81;4996335;28;20033;-81
2021/07/02 09:13:12;;;;;;;15.10;10.18;;;;;;;19.04;95.08;100576.25;4979337;28;20033;-81
2021/07/02 09:15:48;;;;;;;18.23;10.60;;;;;;;20.89;83.93;100567.50;4979102;28;20024;-82
2021/07/02 09:18:15;;;;;;;16.58;10.57;;;;;;;22.19;77.45;100560.19;4978927;28;20117;-81
2021/07/02 09:20:43;;;;;;;19.88;9.48;;;;;;;23.24;73.35;100560.00;4978558;28;20018;-81
2021/07/02 09:23:13;;;;;;;18.83;10.77;;;;;;;22.97;74.00;100568.97;4978330;28;20367;-81
2021/07/02 09:25:47;;;;;;;11.60;8.32;;;;;;;24.04;69.79;100559.53;4979554;28;20029;-81
2021/07/02 09:28:20;;;;;;;15.50;9.13;;;;;;;23.40;73.78;100575.66;4980603;28;20499;-81
2021/07/02 09:30:47;;;;;;;14.65;8.85;;;;;;;23.85;69.48;100575.94;4980151;28;20480;-81
2021/07/02 09:33:16;;;;;;;17.20;9.32;;;;;;;24.13;71.28;100567.63;4977779;28;20034;-82
2021/07/02 09:35:49;;;;;;;15.82;9.18;;;;;;;24.62;66.33;100562.25;4979697;28;20018;-81
2021/07/02 09:38:17;;;;;;;16.13;8.98;;;;;;;23.61;69.60;100563.50;4979712;28;20018;-81
2021/07/02 09:40:44;;;;;;;14.82;8.48;;;;;;;21.59;77.08;100569.38;4979639;28;20037;-81
2021/07/02 09:43:16;;;;;;;14.70;7.78;;;;;;;20.64;85.44;100578.69;4996973;28;20074;-82
2021/07/02 09:45:53;;;;;;;10.90;7.25;;;;;;;22.70;73.83;100576.13;4979550;28;20060;-79
2021/07/02 09:48:21;;;;;;;14.57;7.95;;;;;;;22.29;72.14;100571.81;4995578;28;20038;-79
2021/07/02 09:50:53;;;;;;;14.30;7.72;;;;;;;21.09;79.50;100573.34;4977907;28;20073;-79
2021/07/02 09:53:35;;;;;;;12.65;7.95;;;;;;;22.04;75.33;100577.88;4977466;28;20026;-79
2021/07/02 09:56:24;;;;;;;11.60;7.25;;;;;;;21.90;73.12;100573.50;4978070;28;20026;-79
2021/07/02 09:58:53;;;;;;;10.43;6.68;;;;;;;24.61;64.07;100589.75;4977478;28;20125;-78
2021/07/02 10:01:29;;;;;;;11.32;6.50;;;;;;;24.90;63.17;100587.47;4978895;28;20022;-81
2021/07/02 10:04:07;;;;;;;10.27;6.93;;;;;;;24.11;65.41;100584.63;4978593;28;20030;-81
2021/07/02 10:06:32;;;;;;;10.98;6.07;;;;;;;25.47;62.32;100579.41;4995989;28;20049;-81
2021/07/02 10:09:00;;;;;;;11.30;6.68;;;;;;;24.32;64.25;100575.06;4977904;28;20018;-81
2021/07/02 10:11:26;;;;;;;11.57;6.65;;;;;;;22.29;73.78;100577.97;4995383;28;20422;-81
2021/07/02 10:13:52;;;;;;;13.15;6.80;;;;;;;24.14;66.75;100597.66;4995164;28;20018;-80
2021/07/02 10:16:17;;;;;;;12.52;6.10;;;;;;;24.41;63.97;100588.56;4978026;28;20022;-81
2021/07/02 10:18:50;;;;;;;11.55;6.20;;;;;;;24.58;60.58;100586.34;4994987;28;20105;-81
2021/07/02 10:21:19;;;;;;;10.70;6.93;;;;;;;25.56;59.86;100590.28;4977339;28;20048;-81
2021/07/02 10:23:50;;;;;;;10.80;6.13;;;;;;;26.24;56.69;100589.09;4977904;28;20029;-81
2021/07/02 10:26:17;;;;;;;12.07;5.93;;;;;;;22.92;65.18;100596.66;4977888;28;20033;-81
2021/07/02 10:28:46;;;;;;;12.25;6.85;;;;;;;21.13;74.39;100595.97;4978197;28;20030;-81
2021/07/02 10:31:12;;;;;;;10.40;6.05;;;;;;;23.07;68.82;100586.84;4994830;28;20033;-81
2021/07/02 10:33:46;;;;;;;10.15;5.50;;;;;;;24.40;61.59;100600.97;4994521;28;20018;-81
2021/07/02 10:36:14;;;;;;;9.63;6.13;;;;;;;24.98;59.54;100585.94;4976902;28;20057;-81
2021/07/02 10:38:42;;;;;;;9.93;5.88;;;;;;;25.08;59.22;100582.56;4977993;28;20026;-81
2021/07/02 10:41:19;;;;;;;10.10;6.28;;;;;;;22.83;70.02;100594.63;4995078;28;20022;-81
2021/07/02 10:44:03;;;;;;;12.13;6.80;;;;;;;21.96;73.28;100603.97;4994898;28;20026;-81
2021/07/02 10:46:30;;;;;;;11.90;6.47;;;;;;;21.96;74.44;100606.59;4977104;28;20084;-81
2021/07/02 10:48:57;;;;;;;11.60;6.03;;;;;;;23.85;61.44;100605.09;4994218;28;20053;-81
2021/07/02 10:51:31;;;;;;;9.27;5.90;;;;;;;22.63;65.22;100604.78;4976805;28;20032;-81
2021/07/02 10:54:09;;;;;;;12.40;5.10;;;;;;;24.57;56.33;100602.41;4977563;28;20023;-81
2021/07/02 10:56:34;;;;;;;11.52;5.40;;;;;;;23.82;58.42;100607.97;4976763;28;20523;-81
2021/07/02 10:59:02;;;;;;;9.90;5.38;;;;;;;24.96;55.88;100600.28;4977164;28;20022;-81
2021/07/02 11:01:31;;;;;;;9.85;5.25;;;;;;;24.54;56.93;100599.97;4994360;28;20487;-81
2021/07/02 11:04:42;;;;;;;8.88;5.10;;;;;;;25.38;54.70;100593.44;4976930;28;20058;-80
2021/07/02 11:07:13;;;;;;;11.05;5.00;;;;;;;25.55;55.98;100596.53;4975445;28;20041;-80
2021/07/02 11:09:48;;;;;;;12.77;5.88;;;;;;;25.53;58.66;100588.69;4994219;28;20038;-80
2021/07/02 11:12:14;;;;;;;7.90;5.03;;;;;;;25.27;58.20;100588.97;4994506;28;20060;-80
2021/07/02 11:14:55;;;;;;;11.93;5.63;;;;;;;23.78;61.94;100587.97;4976592;28;20030;-80
2021/07/02 11:17:26;;;;;;;9.45;5.57;;;;;;;24.15;62.40;100588.72;4976755;28;20037;-80
2021/07/02 11:20:21;;;;;;;9.88;5.10;;;;;;;25.27;59.96;100586.31;4977471;28;20352;-80
2021/07/02 11:22:57;;;;;;;10.57;4.82;;;;;;;24.88;56.71;100582.31;4977121;28;20097;-80
2021/07/02 11:25:52;;;;;;;10.05;4.95;;;;;;;24.56;56.81;100588.28;4978130;28;20040;-80